Date,TemperatureHighF,TemperatureAvgF,TemperatureLowF,DewpointHighF,DewpointAvgF,DewpointLowF,HumidityHigh,HumidityAvg,HumidityLow,PressureMaxIn,PressureMinIn,WindSpeedMaxMPH,WindSpeedAvgMPH,GustSpeedMaxMPH,PrecipitationSumIn
2013-12-1,38.7,33.7,30.8,32.0,25.2,12.0,92,73,40,30.35,30.02,19,6,0,0.00
2013-12-2,38.2,35.3,33.3,33.0,31.9,31.0,96,87,79,30.02,29.84,6,2,0,0.00
2013-12-3,42.9,37.7,34.1,37.0,35.3,32.0,97,91,78,29.98,29.86,9,2,0,0.00
2013-12-4,51.0,44.1,38.2,46.0,42.6,37.0,99,94,83,30.04,29.96,19,4,0,0.03
2013-12-5,56.1,51.7,45.5,52.0,49.8,45.0,98,93,83,30.02,29.89,16,6,0,0.10
2013-12-6,52.9,42.5,29.5,53.0,42.2,29.0,100,99,98,30.05,29.84,18,4,0,1.78
2013-12-7,33.4,22.2,17.5,33.0,21.2,16.0,99,95,94,30.53,30.03,0,0,0,0.00
2013-12-8,30.0,22.1,17.2,30.0,21.1,16.0,98,95,94,30.53,30.28,0,0,0,0.00
2013-12-9,43.3,35.2,25.6,43.0,34.1,19.0,100,96,68,30.27,30.03,20,5,0,0.15
2013-12-10,29.9,19.9,13.4,24.0,17.6,11.0,96,91,56,30.29,29.93,21,7,0,0.00
2013-12-11,26.3,18.4,11.4,17.0,13.5,9.0,92,82,61,30.47,30.29,20,8,0,0.00
2013-12-12,16.6,10.9,5.9,14.0,5.2,1.0,91,78,60,30.44,30.35,25,12,0,0.00
2013-12-13,28.6,18.6,12.0,15.0,7.7,4.0,74,63,50,30.44,30.36,21,10,0,0.00
2013-12-14,36.3,28.7,24.8,36.0,26.8,11.0,99,93,49,30.38,29.77,18,6,0,0.00
2013-12-15,36.5,22.8,17.7,36.0,21.8,16.0,99,95,94,30.01,29.71,26,11,0,0.09
2013-12-16,28.9,21.9,17.0,28.0,20.8,15.0,97,95,93,30.20,30.00,10,3,0,0.00
2013-12-17,30.6,27.5,18.8,30.0,27.0,17.0,98,97,94,30.16,29.94,9,3,0,0.00
2013-12-18,30.1,18.8,14.3,23.0,17.0,13.0,95,93,73,30.34,30.01,18,8,0,0.00
2013-12-19,46.4,39.8,30.5,29.0,25.2,21.0,82,58,38,30.35,30.15,26,8,0,0.17
2013-12-20,48.8,46.3,42.6,47.0,34.9,21.0,94,67,37,30.13,30.00,17,7,0,0.03
2013-12-21,55.8,51.9,47.8,53.0,49.0,46.0,97,90,76,30.02,29.82,21,6,0,0.00
2013-12-22,56.2,50.1,47.6,54.0,48.9,47.0,99,95,87,29.97,29.78,23,7,0,0.94
2013-12-23,49.0,41.5,29.2,49.0,41.1,29.0,99,98,98,30.04,29.91,18,6,0,0.52
2013-12-24,10.1,5.8,3.7,8.0,0.7,-99.9,91,87,89,30.48,30.34,19,-18,0,0.00
2013-12-25,27.7,18.3,3.7,13.0,8.1,1.0,91,67,43,30.58,30.36,14,4,0,0.00
2013-12-26,25.4,23.0,20.6,20.0,15.8,9.0,88,74,52,30.41,30.27,18,7,0,0.00
2013-12-27,33.0,27.3,20.3,20.0,13.2,3.0,76,56,41,30.51,30.40,15,9,0,0.00
2013-12-28,44.7,36.6,29.8,23.0,14.8,0.0,69,44,16,30.41,30.17,20,6,0,0.00
2013-12-29,42.2,34.1,29.2,38.0,33.1,16.0,98,96,34,30.17,29.64,21,8,0,1.41
2013-12-30,29.8,23.0,18.6,29.0,22.0,17.0,98,96,94,30.15,29.88,15,6,0,0.00
2013-12-31,19.7,17.2,15.2,18.0,15.7,14.0,94,93,92,30.41,30.13,18,6,0,0.00